Time;durP1;ratioP1;P1;durP2;ratioP2;P2;SDS_P1;SDS_P2;PMS_P1;PMS_P2;Temp;Humidity;BMP_temperature;BMP_pressure;BME280_temperature;BME280_humidity;BME280_pressure;Samples;Min_cycle;Max_cycle;Signal;HPM_P1;HPM_P2
2024/02/28 00:01:31;;;;;;;31.70;15.50;;;;;;;2.36;68.85;100253.66;107405;1254;72686;-39
2024/02/28 00:03:59;;;;;;;36.50;15.80;;;;;;;2.35;69.00;100257.84;107437;1255;60546;-39
2024/02/28 00:06:27;;;;;;;37.80;16.90;;;;;;;2.32;68.90;100252.73;107354;1254;60326;-39
2024/02/28 00:08:54;;;;;;;37.00;15.20;;;;;;;2.34;68.84;100254.00;107482;1257;71658;-40
2024/02/28 00:11:22;;;;;;;34.50;15.30;;;;;;;2.38;68.88;100254.42;106021;1254;1005570;-39
2024/02/28 00:13:50;;;;;;;37.30;15.60;;;;;;;2.39;68.84;100252.23;107491;1254;72661;-39
2024/02/28 00:16:17;;;;;;;41.80;16.80;;;;;;;2.35;69.01;100249.87;107475;1253;60453;-39
2024/02/28 00:18:45;;;;;;;45.00;17.40;;;;;;;2.31;69.01;100251.63;107451;1254;60318;-39
2024/02/28 00:21:12;;;;;;;38.10;16.30;;;;;;;2.27;69.23;100251.66;107452;1254;73862;-39
2024/02/28 00:23:40;;;;;;;38.90;15.60;;;;;;;2.24;69.12;100253.30;107469;1253;66812;-39
2024/02/28 00:26:07;;;;;;;42.20;16.00;;;;;;;2.26;69.24;100253.29;107499;1254;71370;-39
2024/02/28 00:28:36;;;;;;;32.70;15.40;;;;;;;2.24;69.25;100251.27;107474;1253;60390;-39
2024/02/28 00:31:03;;;;;;;35.50;15.90;;;;;;;2.22;69.39;100250.90;107488;1254;60296;-39
2024/02/28 00:33:31;;;;;;;37.70;15.70;;;;;;;2.18;69.50;100250.73;107483;1253;71894;-39
2024/02/28 00:35:59;;;;;;;44.20;16.70;;;;;;;2.13;69.72;100247.41;107502;1253;66270;-39
2024/02/28 00:38:27;;;;;;;38.40;15.90;;;;;;;2.09;69.64;100246.63;107468;1254;71095;-39
2024/02/28 00:40:55;;;;;;;45.10;16.50;;;;;;;2.11;69.71;100244.11;107472;1254;60915;-39
2024/02/28 00:43:22;;;;;;;38.80;15.90;;;;;;;2.15;69.64;100239.47;107518;1254;60399;-39
2024/02/28 00:45:50;;;;;;;37.10;16.10;;;;;;;2.14;69.52;100241.14;107444;1254;73841;-39
2024/02/28 00:48:17;;;;;;;40.30;16.50;;;;;;;2.12;69.80;100239.13;107495;1256;66316;-39
2024/02/28 00:50:45;;;;;;;44.80;17.70;;;;;;;2.10;69.69;100235.29;107485;1254;71445;-39
2024/02/28 00:53:13;;;;;;;37.50;16.80;;;;;;;2.05;69.64;100231.80;107476;1253;60786;-39
2024/02/28 00:55:40;;;;;;;41.20;16.00;;;;;;;1.99;69.61;100231.70;107477;1254;60284;-39
2024/02/28 00:58:08;;;;;;;43.20;16.20;;;;;;;1.98;69.76;100229.48;107438;1254;73847;-39
2024/02/28 01:00:35;;;;;;;34.80;16.70;;;;;;;2.00;69.70;100231.95;107481;1254;67575;-39
2024/02/28 01:03:03;;;;;;;46.30;17.00;;;;;;;1.99;69.83;100228.44;107464;1254;72737;-39
2024/02/28 01:05:31;;;;;;;41.00;16.20;;;;;;;1.97;69.83;100227.93;107462;1254;60466;-39
2024/02/28 01:07:59;;;;;;;40.40;16.30;;;;;;;1.96;69.97;100223.02;107467;1253;60306;-39
2024/02/28 01:10:26;;;;;;;35.40;15.90;;;;;;;1.95;69.88;100223.55;107479;1253;73201;-39
2024/02/28 01:12:53;;;;;;;37.00;16.60;;;;;;;1.94;69.96;100224.59;107470;1254;66364;-39
2024/02/28 01:15:21;;;;;;;42.50;16.20;;;;;;;1.95;69.83;100225.15;107494;1254;72708;-39
2024/02/28 01:17:49;;;;;;;38.70;16.20;;;;;;;1.99;69.69;100219.45;107469;1254;59608;-39
2024/02/28 01:20:16;;;;;;;37.30;16.40;;;;;;;1.97;69.60;100222.25;107474;1254;60271;-39
2024/02/28 01:22:44;;;;;;;36.30;17.20;;;;;;;1.94;69.72;100221.42;107491;1254;73849;-39
2024/02/28 01:25:11;;;;;;;34.10;17.40;;;;;;;1.92;69.78;100219.79;107515;1254;65424;-38
2024/02/28 01:27:39;;;;;;;34.10;16.00;;;;;;;1.89;69.69;100217.19;107456;1255;72676;-38
2024/02/28 01:30:07;;;;;;;36.70;15.30;;;;;;;1.86;69.96;100214.65;107455;1254;60039;-38
2024/02/28 01:32:34;;;;;;;37.80;14.80;;;;;;;1.85;69.77;100213.10;107521;1254;60800;-39
2024/02/28 01:35:03;;;;;;;33.70;16.30;;;;;;;1.88;69.72;100214.52;107458;1254;73645;-38
2024/02/28 01:37:30;;;;;;;38.60;16.50;;;;;;;1.90;69.85;100212.48;107545;1254;67414;-39
2024/02/28 01:39:58;;;;;;;43.50;17.60;;;;;;;1.89;69.82;100212.11;107466;1254;71361;-39
2024/02/28 01:42:25;;;;;;;37.20;16.80;;;;;;;1.85;69.85;100211.45;107455;1257;60453;-39
2024/02/28 01:44:53;;;;;;;40.70;17.10;;;;;;;1.80;69.89;100210.48;107339;1254;181857;-39
2024/02/28 01:48:34;;;;;;;30.90;15.20;;;;;;;1.78;70.01;100206.48;104246;1292;600801;-39
2024/02/28 01:51:02;;;;;;;37.60;16.30;;;;;;;1.79;70.11;100204.61;106609;1266;59577;-39
2024/02/28 01:53:30;;;;;;;36.30;16.40;;;;;;;1.81;70.14;100200.41;106698;1265;59997;-39
2024/02/28 01:55:57;;;;;;;31.50;16.00;;;;;;;1.78;70.34;100198.79;106767;1266;71047;-38
2024/02/28 01:58:25;;;;;;;43.20;17.10;;;;;;;1.76;70.22;100200.88;106756;1266;67616;-38
2024/02/28 02:00:52;;;;;;;36.30;16.60;;;;;;;1.74;70.36;100202.73;106744;1267;71575;-39
2024/02/28 02:03:20;;;;;;;30.40;16.00;;;;;;;1.72;70.30;100203.38;106721;1264;178737;-39
2024/02/28 02:05:48;;;;;;;38.20;16.00;;;;;;;1.71;70.33;100207.29;107057;1259;60061;-38
2024/02/28 02:08:15;;;;;;;35.60;15.10;;;;;;;1.75;70.37;100203.56;107016;1259;70954;-38
2024/02/28 02:10:43;;;;;;;36.10;16.00;;;;;;;1.79;70.05;100206.91;106919;1259;66278;-38
2024/02/28 02:13:11;;;;;;;41.10;16.00;;;;;;;1.79;70.09;100207.17;107007;1263;71395;-39
2024/02/28 02:15:38;;;;;;;36.70;16.40;;;;;;;1.75;70.23;100209.66;107040;1263;59622;-39
2024/02/28 02:18:06;;;;;;;42.10;17.40;;;;;;;1.72;70.40;100209.73;107099;1265;60005;-38
2024/02/28 02:20:34;;;;;;;34.40;15.90;;;;;;;1.70;70.32;100208.90;106910;1259;71844;-38
2024/02/28 02:23:02;;;;;;;38.00;15.80;;;;;;;1.68;70.32;100207.48;106896;1259;68406;-39
2024/02/28 02:25:29;;;;;;;31.30;15.50;;;;;;;1.72;70.61;100209.68;107013;1260;72686;-39
2024/02/28 02:27:57;;;;;;;36.80;16.40;;;;;;;1.78;70.51;100211.67;107061;1263;59979;-39
2024/02/28 02:30:24;;;;;;;38.70;15.80;;;;;;;1.75;70.55;100210.30;107037;1265;60105;-38
2024/02/28 02:32:52;;;;;;;38.10;16.00;;;;;;;1.73;70.51;100211.08;107028;1259;73113;-38
2024/02/28 02:35:20;;;;;;;38.90;17.00;;;;;;;1.74;70.55;100209.36;107043;1259;67564;-38
2024/02/28 02:37:48;;;;;;;36.00;17.00;;;;;;;1.74;70.45;100208.33;107010;1261;71144;-39
2024/02/28 02:40:16;;;;;;;29.90;14.70;;;;;;;1.74;70.53;100205.12;107031;1260;60910;-39
2024/02/28 02:42:44;;;;;;;37.90;15.40;;;;;;;1.76;70.36;100204.10;106999;1260;60008;-39
2024/02/28 02:45:11;;;;;;;39.50;15.30;;;;;;;1.81;70.26;100205.86;107044;1259;71903;-38
2024/02/28 02:47:39;;;;;;;31.50;14.80;;;;;;;1.82;70.26;100207.26;107039;1259;67900;-38
2024/02/28 02:50:07;;;;;;;39.70;16.70;;;;;;;1.83;70.28;100207.99;107037;1263;72733;-38
2024/02/28 02:52:34;;;;;;;33.30;16.10;;;;;;;1.83;70.25;100206.61;107019;1264;59487;-38
2024/02/28 02:55:02;;;;;;;33.80;16.20;;;;;;;1.83;70.17;100210.73;107022;1259;59375;-38
2024/02/28 02:57:31;;;;;;;36.90;15.50;;;;;;;1.80;69.92;100209.19;107024;1259;72257;-38
2024/02/28 02:59:59;;;;;;;35.80;14.30;;;;;;;1.79;69.86;100213.27;107023;1260;67617;-40
2024/02/28 03:02:27;;;;;;;33.50;16.00;;;;;;;1.82;69.87;100211.53;107021;1260;72734;-38
2024/02/28 03:04:54;;;;;;;35.10;15.90;;;;;;;1.82;69.88;100212.27;107003;1263;59612;-38
2024/02/28 03:07:22;;;;;;;35.70;15.30;;;;;;;1.79;69.93;100214.08;107025;1265;59498;-38
2024/02/28 03:09:50;;;;;;;39.40;15.60;;;;;;;1.77;70.00;100210.40;107003;1260;71766;-38
2024/02/28 03:12:17;;;;;;;37.50;16.10;;;;;;;1.75;70.04;100214.56;107041;1260;68031;-38
2024/02/28 03:14:45;;;;;;;34.50;15.30;;;;;;;1.73;69.83;100214.66;107039;1260;72705;-38
2024/02/28 03:17:13;;;;;;;31.00;14.30;;;;;;;1.75;69.85;100214.70;107023;1264;60916;-38
2024/02/28 03:19:41;;;;;;;39.00;14.70;;;;;;;1.78;69.96;100215.16;106993;1260;60028;-38
2024/02/28 03:22:08;;;;;;;26.40;13.40;;;;;;;1.79;69.87;100215.42;107057;1260;72163;-38
2024/02/28 03:24:37;;;;;;;31.40;14.60;;;;;;;1.78;69.98;100219.54;107030;1260;67631;-38
2024/02/28 03:27:05;;;;;;;31.90;13.40;;;;;;;1.77;69.85;100222.86;107012;1260;72690;-38
2024/02/28 03:29:32;;;;;;;33.00;13.50;;;;;;;1.75;69.94;100223.02;107013;1260;59505;-38
2024/02/28 03:32:00;;;;;;;35.20;13.80;;;;;;;1.73;69.77;100223.90;107027;1260;59511;-38
2024/02/28 03:34:27;;;;;;;35.40;13.50;;;;;;;1.77;70.03;100229.27;106972;1260;73102;-38
2024/02/28 03:36:55;;;;;;;34.40;14.40;;;;;;;1.82;69.96;100229.77;107025;1264;67948;-38
2024/02/28 03:39:23;;;;;;;32.60;13.40;;;;;;;1.82;69.88;100230.73;107009;1260;72754;-38
2024/02/28 03:41:50;;;;;;;32.00;13.90;;;;;;;1.81;69.77;100229.29;107013;1262;59632;-38
2024/02/28 03:44:18;;;;;;;34.00;14.60;;;;;;;1.80;69.54;100227.05;107000;1260;60085;-38
2024/02/28 03:46:45;;;;;;;30.50;14.10;;;;;;;1.77;69.71;100225.91;107311;1260;73131;-38
2024/02/28 03:49:13;;;;;;;33.90;13.90;;;;;;;1.75;69.62;100224.30;107340;1257;65630;-38
2024/02/28 03:51:41;;;;;;;28.50;11.90;;;;;;;1.76;69.62;100225.58;107212;1256;72861;-38
2024/02/28 03:54:08;;;;;;;24.70;12.10;;;;;;;1.75;69.50;100225.92;107295;1256;59633;-38
2024/02/28 03:56:36;;;;;;;30.20;12.80;;;;;;;1.72;69.67;100224.34;107260;1260;59501;-38
2024/02/28 03:59:04;;;;;;;28.10;13.30;;;;;;;1.73;69.69;100224.34;107215;1256;73128;-38
2024/02/28 04:01:31;;;;;;;27.00;12.70;;;;;;;1.73;69.70;100221.83;107248;1257;67578;-38
2024/02/28 04:03:59;;;;;;;28.40;13.10;;;;;;;1.70;69.59;100221.93;107210;1256;71704;-38
2024/02/28 04:06:27;;;;;;;30.20;12.30;;;;;;;1.70;69.38;100220.83;107228;1258;60854;-38
2024/02/28 04:08:54;;;;;;;36.90;13.00;;;;;;;1.71;69.33;100221.72;107237;1256;59722;-38
2024/02/28 04:11:22;;;;;;;33.30;12.30;;;;;;;1.71;69.25;100219.85;107221;1256;71600;-38
2024/02/28 04:13:49;;;;;;;28.30;11.50;;;;;;;1.70;69.20;100216.71;107252;1257;68048;-38
2024/02/28 04:16:17;;;;;;;27.70;12.10;;;;;;;1.66;69.11;100216.58;107289;1256;72679;-38
2024/02/28 04:18:44;;;;;;;25.20;11.80;;;;;;;1.64;69.01;100215.52;107283;1257;59570;-38
2024/02/28 04:21:12;;;;;;;33.20;11.50;;;;;;;1.60;68.76;100216.09;107246;1257;59779;-38
2024/02/28 04:23:41;;;;;;;25.20;11.10;;;;;;;1.53;68.72;100210.38;107293;1256;73040;-39
2024/02/28 04:26:09;;;;;;;22.20;11.00;;;;;;;1.60;68.71;100218.87;107281;1260;67985;-39
2024/02/28 04:28:37;;;;;;;27.50;11.60;;;;;;;1.58;68.61;100215.41;107237;1256;71166;-38
2024/02/28 04:31:04;;;;;;;30.30;11.60;;;;;;;1.53;68.58;100221.33;107224;1257;59547;-38
2024/02/28 04:33:32;;;;;;;23.40;11.00;;;;;;;1.50;68.64;100221.79;107312;1256;59680;-38
2024/02/28 04:36:00;;;;;;;25.30;11.80;;;;;;;1.48;68.69;100223.83;107266;1256;73056;-39
2024/02/28 04:38:27;;;;;;;25.50;11.40;;;;;;;1.47;68.72;100228.05;107295;1255;66975;-39
2024/02/28 04:40:55;;;;;;;22.20;10.20;;;;;;;1.45;68.60;100221.77;107245;1256;71367;-39
2024/02/28 04:43:22;;;;;;;24.60;10.50;;;;;;;1.47;68.63;100222.59;107266;1256;60865;-39
2024/02/28 04:45:50;;;;;;;27.00;10.80;;;;;;;1.49;68.38;100224.30;107274;1256;60028;-39
2024/02/28 04:48:18;;;;;;;20.40;9.80;;;;;;;1.47;68.68;100223.72;107288;1256;73060;-39
2024/02/28 04:50:45;;;;;;;23.50;10.30;;;;;;;1.46;68.37;100226.18;107302;1257;67614;-39
2024/02/28 04:53:13;;;;;;;22.10;10.70;;;;;;;1.45;68.39;100226.68;107274;1257;73154;-39
2024/02/28 04:55:40;;;;;;;22.20;11.10;;;;;;;1.42;68.48;100225.90;107288;1257;59796;-38
2024/02/28 04:58:08;;;;;;;27.50;10.90;;;;;;;1.41;68.54;100226.74;106530;1257;1003476;-38
2024/02/28 05:00:35;;;;;;;20.90;9.60;;;;;;;1.45;68.31;100231.81;105039;1256;1003914;-39
2024/02/28 05:03:03;;;;;;;23.00;10.20;;;;;;;1.50;68.47;100230.91;107258;1257;67922;-39
2024/02/28 05:05:31;;;;;;;22.40;9.90;;;;;;;1.51;68.24;100233.63;107257;1260;72464;-39
2024/02/28 05:07:58;;;;;;;24.60;10.40;;;;;;;1.51;68.10;100236.83;107302;1261;59549;-39
2024/02/28 05:10:26;;;;;;;26.30;10.70;;;;;;;1.50;68.24;100234.28;107327;1256;59521;-38
2024/02/28 05:12:54;;;;;;;26.70;10.30;;;;;;;1.47;68.21;100238.67;107311;1262;73096;-39
2024/02/28 05:15:22;;;;;;;20.70;9.50;;;;;;;1.46;68.20;100239.77;107313;1257;68537;-39
2024/02/28 05:17:52;;;;;;;26.90;10.80;;;;;;;1.46;68.27;100237.93;107246;1256;72677;-38
2024/02/28 05:20:20;;;;;;;25.40;10.20;;;;;;;1.50;68.00;100241.08;106525;1257;1002910;-39
2024/02/28 05:22:47;;;;;;;23.10;10.00;;;;;;;1.56;67.93;100243.96;107258;1260;60166;-38
2024/02/28 05:25:15;;;;;;;22.90;10.40;;;;;;;1.59;68.09;100243.95;107214;1257;73045;-38
2024/02/28 05:27:42;;;;;;;25.80;11.50;;;;;;;1.60;68.08;100238.11;107272;1256;66626;-38
2024/02/28 05:30:11;;;;;;;27.40;11.20;;;;;;;1.60;68.11;100239.60;107243;1257;72684;-38
2024/02/28 05:32:38;;;;;;;24.00;10.60;;;;;;;1.62;67.89;100242.74;107292;1256;59598;-38
2024/02/28 05:35:06;;;;;;;28.90;11.60;;;;;;;1.63;67.63;100243.12;107327;1257;59657;-38
2024/02/28 05:37:34;;;;;;;28.20;12.10;;;;;;;1.64;67.70;100248.09;107280;1258;71920;-39
2024/02/28 05:40:02;;;;;;;22.90;10.70;;;;;;;1.62;67.77;100249.85;107215;1257;66306;-39
2024/02/28 05:42:31;;;;;;;22.90;10.10;;;;;;;1.65;67.60;100250.75;106480;1260;1003498;-39
2024/02/28 05:44:58;;;;;;;24.80;10.30;;;;;;;1.74;67.73;100255.27;107270;1257;59506;-39
2024/02/28 05:47:26;;;;;;;23.20;11.40;;;;;;;1.80;67.68;100256.20;107305;1257;60053;-38
2024/02/28 05:49:55;;;;;;;28.40;11.20;;;;;;;1.84;67.50;100259.58;107269;1257;71926;-38
2024/02/28 05:52:25;;;;;;;22.20;10.00;;;;;;;1.89;67.43;100268.41;107258;1260;67952;-38
2024/02/28 05:54:53;;;;;;;16.70;7.60;;;;;;;1.92;66.97;100268.77;107279;1257;72694;-39
2024/02/28 05:57:20;;;;;;;22.50;10.40;;;;;;;1.94;67.07;100268.54;107256;1260;60319;-38
2024/02/28 05:59:48;;;;;;;27.70;10.30;;;;;;;1.96;66.87;100266.81;107249;1256;60479;-38
2024/02/28 06:02:15;;;;;;;20.50;10.90;;;;;;;1.97;66.74;100272.21;107266;1257;73893;-38
2024/02/28 06:04:43;;;;;;;29.10;10.90;;;;;;;1.99;66.34;100271.23;107240;1256;66871;-39
2024/02/28 06:07:10;;;;;;;22.40;11.10;;;;;;;2.01;66.51;100270.14;107273;1260;72663;-38
2024/02/28 06:09:38;;;;;;;25.70;9.80;;;;;;;2.03;66.41;100274.06;107265;1256;60437;-38
2024/02/28 06:12:06;;;;;;;25.40;11.00;;;;;;;2.12;66.20;100274.27;107260;1257;60421;-38
2024/02/28 06:14:34;;;;;;;19.30;10.30;;;;;;;2.19;66.11;100273.94;107346;1255;72685;-38
2024/02/28 06:17:01;;;;;;;23.20;11.00;;;;;;;2.20;65.88;100271.52;107288;1256;66423;-38
2024/02/28 06:19:29;;;;;;;31.80;11.20;;;;;;;2.23;65.78;100271.07;107317;1260;71783;-38
2024/02/28 06:21:56;;;;;;;30.00;10.00;;;;;;;2.27;65.80;100271.46;107253;1260;60464;-38
2024/02/28 06:24:24;;;;;;;23.70;10.40;;;;;;;2.31;65.75;100267.84;107235;1260;60310;-38
2024/02/28 06:26:52;;;;;;;25.10;10.30;;;;;;;2.34;65.39;100266.41;106501;1257;1003777;-38
2024/02/28 06:29:21;;;;;;;28.60;10.90;;;;;;;2.34;65.20;100269.09;107261;1255;66337;-38
2024/02/28 06:31:52;;;;;;;16.30;7.60;;;;;;;2.36;65.34;100272.39;107264;1257;71688;-38
2024/02/28 06:34:19;;;;;;;21.80;11.30;;;;;;;2.36;65.24;100270.52;107259;1257;60492;-38
2024/02/28 06:36:47;;;;;;;28.60;10.80;;;;;;;2.39;65.34;100273.64;107276;1257;60486;-38
2024/02/28 06:39:15;;;;;;;27.40;11.30;;;;;;;2.46;64.98;100275.13;107204;1256;73836;-38
2024/02/28 06:41:42;;;;;;;24.50;10.60;;;;;;;2.55;64.69;100275.50;107259;1260;67930;-38
2024/02/28 06:44:11;;;;;;;25.30;10.50;;;;;;;2.60;64.59;100279.04;107274;1257;71421;-38
2024/02/28 06:46:38;;;;;;;27.50;10.80;;;;;;;2.66;64.30;100280.00;107233;1262;60473;-39
2024/02/28 06:49:06;;;;;;;28.60;11.30;;;;;;;2.72;64.45;100280.85;107278;1260;60313;-38
2024/02/28 06:51:34;;;;;;;28.00;11.00;;;;;;;2.78;64.23;100283.18;107276;1257;74563;-38
2024/02/28 06:54:01;;;;;;;20.70;10.50;;;;;;;2.83;63.70;100284.68;107244;1260;67583;-38
2024/02/28 06:56:30;;;;;;;26.90;10.90;;;;;;;2.85;63.27;100285.41;107257;1260;71256;-38
2024/02/28 06:58:58;;;;;;;22.10;10.50;;;;;;;2.86;63.16;100287.74;107303;1257;60328;-39
2024/02/28 07:01:25;;;;;;;26.10;11.60;;;;;;;2.86;63.22;100287.74;107283;1257;60528;-38
2024/02/28 07:03:53;;;;;;;28.00;11.70;;;;;;;2.85;62.99;100282.73;107253;1257;73861;-39
2024/02/28 07:06:21;;;;;;;23.40;10.60;;;;;;;2.85;63.57;100286.64;107277;1257;67849;-38
2024/02/28 07:08:48;;;;;;;29.00;11.80;;;;;;;2.89;63.38;100289.39;107238;1256;71550;-39
2024/02/28 07:11:16;;;;;;;21.00;9.70;;;;;;;2.94;63.10;100287.82;107260;1256;61034;-38
2024/02/28 07:13:43;;;;;;;21.70;10.80;;;;;;;3.05;63.01;100292.72;107298;1259;60289;-38
2024/02/28 07:16:11;;;;;;;25.20;11.40;;;;;;;3.13;62.81;100294.02;107217;1257;73879;-39
2024/02/28 07:18:38;;;;;;;24.60;11.00;;;;;;;3.19;62.56;100291.33;107282;1255;66793;-39
2024/02/28 07:21:07;;;;;;;25.50;12.20;;;;;;;3.22;62.33;100291.81;107308;1257;72969;-39
2024/02/28 07:23:39;;;;;;;25.80;10.90;;;;;;;3.24;62.14;100294.48;107267;1257;60508;-39
2024/02/28 07:26:07;;;;;;;25.60;11.50;;;;;;;3.27;62.11;100299.73;107252;1262;60464;-38
2024/02/28 07:28:52;;;;;;;24.90;11.90;;;;;;;3.29;62.01;100297.02;107284;1257;73850;-38
2024/02/28 07:31:20;;;;;;;32.50;13.70;;;;;;;3.29;62.22;100301.54;107258;1260;67604;-39
2024/02/28 07:33:47;;;;;;;20.40;11.60;;;;;;;3.28;62.11;100297.46;107142;1260;72815;-38
2024/02/28 07:36:15;;;;;;;22.70;11.50;;;;;;;3.29;61.92;100295.42;107197;1258;60313;-39
2024/02/28 07:38:43;;;;;;;24.90;12.50;;;;;;;3.32;62.25;100299.02;107239;1257;60416;-39
2024/02/28 07:41:10;;;;;;;25.00;12.50;;;;;;;3.35;62.20;100299.48;107224;1261;76066;-39
2024/02/28 07:43:42;;;;;;;25.50;13.00;;;;;;;3.42;62.27;100299.70;106557;1260;1003815;-38
2024/02/28 07:46:11;;;;;;;25.20;12.10;;;;;;;3.49;62.10;100302.18;107206;1257;72760;-38
2024/02/28 07:48:39;;;;;;;27.10;12.50;;;;;;;3.59;61.92;100304.81;107237;1260;60380;-39
2024/02/28 07:51:07;;;;;;;22.80;11.30;;;;;;;3.72;61.95;100302.92;107195;1255;61300;-39
2024/02/28 07:53:35;;;;;;;25.80;11.30;;;;;;;3.87;60.98;100305.59;107316;1257;74003;-39
2024/02/28 07:56:03;;;;;;;24.80;12.60;;;;;;;4.00;60.67;100309.51;107288;1258;69854;-38
2024/02/28 07:58:31;;;;;;;25.20;11.70;;;;;;;4.12;59.75;100307.51;107260;1260;71935;-38
2024/02/28 08:00:58;;;;;;;24.90;12.10;;;;;;;4.19;59.45;100309.74;107303;1258;60454;-39
2024/02/28 08:03:26;;;;;;;23.50;11.50;;;;;;;4.26;59.29;100314.83;107247;1257;60353;-39
2024/02/28 08:05:54;;;;;;;21.50;10.70;;;;;;;4.34;58.95;100310.87;107263;1256;74105;-39
2024/02/28 08:08:21;;;;;;;22.40;11.30;;;;;;;4.43;58.32;100312.39;107278;1256;68405;-38
2024/02/28 08:10:51;;;;;;;26.60;10.70;;;;;;;4.49;57.58;100316.10;107310;1257;71408;-38
2024/02/28 08:13:19;;;;;;;27.00;10.60;;;;;;;4.56;57.40;100315.40;107253;1257;60192;-38
2024/02/28 08:15:47;;;;;;;16.80;9.30;;;;;;;4.66;57.70;100312.69;107274;1260;60399;-39
2024/02/28 08:18:14;;;;;;;23.30;10.50;;;;;;;4.81;57.31;100316.63;107227;1258;72895;-39
2024/02/28 08:20:42;;;;;;;24.60;11.40;;;;;;;4.98;56.84;100318.79;107276;1260;65882;-39
2024/02/28 08:23:10;;;;;;;20.00;10.10;;;;;;;5.12;55.71;100321.08;107257;1260;72946;-39
2024/02/28 08:25:37;;;;;;;18.90;10.20;;;;;;;5.25;55.38;100322.92;107237;1257;60388;-39
2024/02/28 08:28:06;;;;;;;21.90;10.30;;;;;;;5.33;55.10;100314.84;107277;1258;60484;-38
2024/02/28 15:19:26;;;;;;;16.70;9.30;;;;;;;9.98;46.39;100123.15;105003;1283;613829;-40
2024/02/28 15:21:54;;;;;;;14.90;8.60;;;;;;;10.12;46.18;100129.79;106517;1264;144880;-40
2024/02/28 15:24:22;;;;;;;18.80;9.00;;;;;;;10.07;46.11;100126.15;106650;1268;59181;-40
2024/02/28 15:26:51;;;;;;;16.60;8.00;;;;;;;9.97;46.34;100121.66;106745;1269;74436;-40
2024/02/28 15:29:19;;;;;;;;;;;;;;;9.86;46.37;100122.75;106766;1263;68325;-41
2024/02/28 15:31:47;;;;;;;19.30;7.60;;;;;;;9.74;46.68;100115.98;106702;1266;70477;-41
2024/02/28 15:34:14;;;;;;;15.70;8.00;;;;;;;9.61;47.01;100113.09;106770;1264;60188;-40
2024/02/28 15:36:42;;;;;;;16.80;8.00;;;;;;;9.51;47.29;100111.63;106775;1264;60459;-41
2024/02/28 15:39:10;;;;;;;16.10;7.70;;;;;;;9.38;47.59;100111.88;106702;1266;71398;-41
2024/02/28 15:41:37;;;;;;;17.10;8.20;;;;;;;9.28;47.86;100110.41;106569;1264;68049;-41
2024/02/28 15:44:08;;;;;;;18.70;9.10;;;;;;;9.19;48.32;100112.88;106688;1267;72819;-40
2024/02/28 15:46:37;;;;;;;16.90;8.80;;;;;;;9.07;48.80;100116.73;106702;1269;60926;-40
2024/02/28 15:49:05;;;;;;;19.70;9.80;;;;;;;8.97;49.11;100115.34;106721;1269;59507;-40
2024/02/28 15:51:33;;;;;;;19.40;9.40;;;;;;;8.89;49.51;100116.81;106747;1268;71164;-39
2024/02/28 15:54:01;;;;;;;14.60;8.40;;;;;;;8.79;49.97;100116.81;106706;1264;67873;-41
2024/02/28 15:56:29;;;;;;;20.40;8.90;;;;;;;8.66;50.35;100116.10;106747;1264;71517;-41
2024/02/28 15:58:57;;;;;;;22.10;9.00;;;;;;;8.55;50.81;100118.52;106707;1267;61144;-41
2024/02/28 16:01:24;;;;;;;20.70;9.70;;;;;;;8.45;51.08;100124.46;106691;1269;59550;-40
2024/02/28 16:03:52;;;;;;;20.00;9.60;;;;;;;8.37;51.40;100129.08;106700;1264;73393;-41
2024/02/28 16:06:23;;;;;;;23.00;9.60;;;;;;;8.31;51.56;100131.47;106663;1264;66549;-40
2024/02/28 16:09:04;;;;;;;18.50;8.70;;;;;;;8.25;51.73;100134.61;106572;1264;74821;-40
2024/02/28 16:11:33;;;;;;;17.50;8.90;;;;;;;8.21;51.88;100132.51;106679;1264;59644;-41
2024/02/28 16:14:01;;;;;;;21.70;9.00;;;;;;;8.15;52.01;100129.41;106685;1267;62281;-41
2024/02/28 16:16:28;;;;;;;18.90;8.60;;;;;;;8.11;52.13;100132.92;106699;1264;75309;-41
2024/02/28 16:18:56;;;;;;;17.00;8.40;;;;;;;8.06;52.25;100131.73;106756;1266;66571;-41
2024/02/28 16:21:24;;;;;;;17.70;8.20;;;;;;;8.02;52.27;100136.52;106692;1266;71504;-40
2024/02/28 16:23:52;;;;;;;19.70;7.80;;;;;;;7.98;52.46;100136.57;106726;1264;59684;-40
2024/02/28 16:26:19;;;;;;;17.70;8.30;;;;;;;7.94;52.53;100140.16;106696;1266;60226;-40
2024/02/28 16:28:47;;;;;;;17.60;7.60;;;;;;;7.89;52.68;100142.30;106708;1267;75227;-41
2024/02/28 16:31:14;;;;;;;13.60;7.10;;;;;;;7.83;52.84;100139.80;106710;1266;68970;-40
2024/02/28 16:33:42;;;;;;;18.10;8.00;;;;;;;7.79;52.95;100140.39;106697;1266;72197;-40
2024/02/28 16:36:11;;;;;;;17.10;8.40;;;;;;;7.74;53.11;100140.59;106673;1269;59964;-40
2024/02/28 16:38:38;;;;;;;16.90;8.40;;;;;;;7.70;53.21;100138.57;107138;1257;60927;-40
2024/02/28 16:41:07;;;;;;;19.40;8.50;;;;;;;7.68;53.39;100136.08;107143;1257;72819;-40
2024/02/28 16:43:34;;;;;;;16.40;8.10;;;;;;;7.63;53.47;100135.63;107118;1257;68995;-40
2024/02/28 16:46:02;;;;;;;17.70;8.00;;;;;;;7.58;53.59;100136.25;107136;1257;72810;-40
2024/02/28 16:48:30;;;;;;;16.40;8.10;;;;;;;7.53;53.81;100136.35;107172;1259;59602;-40
2024/02/28 16:50:58;;;;;;;18.50;9.00;;;;;;;7.49;53.87;100133.63;107189;1257;62185;-40
2024/02/28 16:53:30;;;;;;;18.90;8.10;;;;;;;7.45;54.04;100131.66;107179;1257;71952;-40
2024/02/28 16:56:00;;;;;;;17.40;8.10;;;;;;;7.38;54.19;100132.63;107197;1257;67804;-40
2024/02/28 16:58:30;;;;;;;22.30;9.50;;;;;;;7.35;54.52;100130.41;107219;1260;71471;-40
2024/02/28 17:00:58;;;;;;;17.40;8.30;;;;;;;7.30;54.45;100129.90;107248;1258;59604;-40
2024/02/28 17:03:26;;;;;;;19.10;9.20;;;;;;;7.26;54.50;100125.24;107219;1257;59684;-40
2024/02/28 17:05:53;;;;;;;18.00;8.70;;;;;;;7.22;54.47;100123.69;107195;1256;71000;-40
2024/02/28 17:08:21;;;;;;;20.60;8.50;;;;;;;7.19;54.46;100126.23;107272;1257;67279;-40
2024/02/28 17:10:49;;;;;;;21.80;8.90;;;;;;;7.16;54.41;100124.05;107197;1257;72810;-40
2024/02/28 17:13:16;;;;;;;22.30;9.50;;;;;;;7.14;54.46;100126.92;107197;1257;59695;-40
2024/02/28 17:15:44;;;;;;;22.10;9.00;;;;;;;7.09;54.52;100127.81;107185;1257;59520;-39
2024/02/28 17:18:12;;;;;;;20.80;9.00;;;;;;;7.05;54.57;100128.23;107229;1257;71957;-40
2024/02/28 17:20:40;;;;;;;23.80;9.60;;;;;;;7.01;54.73;100130.35;107201;1257;66580;-40
2024/02/28 17:23:07;;;;;;;19.70;9.20;;;;;;;6.98;54.75;100134.47;107085;1257;71708;-40
2024/02/28 17:25:35;;;;;;;23.40;9.30;;;;;;;6.94;54.87;100136.75;107118;1257;59719;-40
2024/02/28 17:28:03;;;;;;;21.90;8.90;;;;;;;6.93;54.94;100137.70;107159;1257;60159;-40
2024/02/28 17:30:31;;;;;;;23.90;9.50;;;;;;;6.92;54.89;100144.42;107281;1257;72465;-40
2024/02/28 17:32:58;;;;;;;23.20;9.00;;;;;;;6.90;54.85;100146.73;107240;1257;66173;-40
2024/02/28 17:35:26;;;;;;;24.10;8.70;;;;;;;6.89;54.98;100150.06;106470;1257;1002868;-40
2024/02/28 17:37:54;;;;;;;18.30;8.50;;;;;;;6.86;55.05;100149.34;107246;1257;60714;-39
2024/02/28 17:40:21;;;;;;;19.20;8.70;;;;;;;6.84;55.20;100149.89;107165;1257;59228;-40
2024/02/28 17:42:50;;;;;;;24.10;9.10;;;;;;;6.81;55.15;100145.69;107189;1257;71910;-40
2024/02/28 17:45:19;;;;;;;19.20;8.70;;;;;;;6.77;55.19;100141.64;107186;1257;67459;-39
2024/02/28 17:47:47;;;;;;;23.00;9.60;;;;;;;6.73;55.19;100141.54;107063;1260;71718;-40
2024/02/28 17:50:15;;;;;;;18.30;9.10;;;;;;;6.69;55.38;100142.05;107244;1263;59669;-40
2024/02/28 17:52:43;;;;;;;21.20;9.50;;;;;;;6.66;55.27;100147.91;107255;1257;59564;-40
2024/02/28 17:55:15;;;;;;;20.50;9.50;;;;;;;6.61;55.32;100153.54;107219;1258;72237;-40
2024/02/28 17:57:43;;;;;;;20.40;9.70;;;;;;;6.58;55.01;100150.40;107088;1257;67887;-39
2024/02/28 18:00:21;;;;;;;26.70;9.10;;;;;;;6.55;55.15;100147.23;106460;1260;1003144;-40
2024/02/28 18:02:48;;;;;;;26.80;10.20;;;;;;;6.52;54.97;100146.12;107255;1259;59582;-39
2024/02/28 18:05:16;;;;;;;29.00;10.90;;;;;;;6.50;55.05;100142.47;107324;1257;61196;-40